Russell Gardens, New York
Current Conditions -  °F | °C
As of 12:51 PM on Saturday 25 Oct 2014 (Local Time) from KLGA Reporting Station
Few Clouds Few Clouds  
Wind Chill: 63°   Ceiling: Unl
Heat Index: 63°   Visibility: 10mi
Dew Point: 40°   Wind: 9mph
Humidity: 43%   Direction: 270°W
Pressure: 29.77"   Gusts: NA
Location:  40.786°N, 73.7291°W
Report Text: KLGA 251651Z 27008KT 10SM FEW250 17/04 A2977 RMK AO2 SLP081 T01720044
Loading
Personal Weather Stations






























Interactive Weather Map
Tropical Storm Tracking
New forecast layout! Learn more

10-Day Weather Forecast

Advertisements
Track Severe Weather on mobile